createdAt,value
2023-06-07T00:00:48.208Z,24.56
2023-06-07T00:03:15.962Z,25.11
2023-06-07T00:05:44.617Z,25.20
2023-06-07T00:08:11.334Z,24.51
2023-06-07T00:10:38.516Z,25.13
2023-06-07T00:13:05.478Z,25.13
2023-06-07T00:15:32.436Z,25.15
2023-06-07T00:18:02.086Z,25.22
2023-06-07T00:20:31.712Z,25.02
2023-06-07T00:22:59.176Z,25.50
2023-06-07T00:25:26.205Z,25.46
2023-06-07T00:27:54.102Z,25.14
2023-06-07T00:30:20.809Z,25.07
2023-06-07T00:32:48.255Z,24.99
2023-06-07T00:35:15.248Z,25.31
2023-06-07T00:37:42.451Z,25.38
2023-06-07T00:40:09.456Z,25.08
2023-06-07T00:42:36.354Z,25.20
2023-06-07T00:45:03.083Z,25.12
2023-06-07T00:47:30.730Z,25.40
2023-06-07T00:49:57.803Z,24.76
2023-06-07T00:52:25.104Z,24.82
2023-06-07T00:54:52.261Z,24.95
2023-06-07T00:57:18.978Z,25.28
2023-06-07T00:59:46.609Z,25.32
2023-06-07T01:02:16.816Z,25.19
2023-06-07T01:04:44.662Z,24.96
2023-06-07T01:07:12.395Z,25.23
2023-06-07T01:09:41.180Z,24.77
2023-06-07T01:12:14.567Z,24.90
2023-06-07T01:14:44.381Z,25.02
2023-06-07T01:17:13.925Z,24.83
2023-06-07T01:19:43.610Z,25.18
2023-06-07T01:22:11.731Z,24.98
2023-06-07T01:24:44.219Z,25.15
2023-06-07T01:27:11.401Z,24.53
2023-06-07T01:29:40.680Z,24.63
2023-06-07T01:32:13.267Z,24.54
2023-06-07T01:34:41.142Z,25.02
2023-06-07T01:37:08.917Z,24.06
2023-06-07T01:39:37.265Z,24.28
2023-06-07T01:42:05.070Z,24.66
2023-06-07T01:44:32.888Z,24.22
2023-06-07T01:46:59.599Z,24.50
2023-06-07T01:49:26.242Z,24.54
2023-06-07T01:51:52.872Z,24.00
2023-06-07T01:54:20.255Z,23.95
2023-06-07T01:56:57.130Z,23.82
2023-06-07T01:59:51.867Z,24.02
2023-06-07T02:02:22.963Z,23.91
2023-06-07T02:04:58.755Z,23.85
2023-06-07T02:07:29.549Z,23.77
2023-06-07T02:10:02.930Z,23.95
2023-06-07T02:12:31.450Z,23.73
2023-06-07T02:17:49.848Z,23.98
2023-06-07T02:20:18.299Z,24.09
2023-06-07T02:22:45.631Z,24.17
2023-06-07T02:25:12.268Z,24.33
2023-06-07T02:27:39.130Z,24.45
2023-06-07T02:30:06.791Z,24.67
2023-06-07T02:32:34.552Z,24.25
2023-06-07T02:35:02.180Z,24.31
2023-06-07T02:37:29.546Z,24.03
2023-06-07T02:39:56.230Z,23.77
2023-06-07T02:42:23.266Z,23.70
2023-06-07T02:44:50.169Z,23.08
2023-06-07T02:47:16.789Z,23.24
2023-06-07T02:49:44.014Z,23.54
2023-06-07T02:52:11.788Z,23.29
2023-06-07T02:54:41.000Z,23.51
2023-06-07T02:57:09.024Z,23.32
2023-06-07T02:59:35.745Z,23.11
2023-06-07T03:02:02.605Z,22.67
2023-06-07T03:04:32.046Z,23.26
2023-06-07T03:07:01.598Z,23.87
2023-06-07T03:09:33.539Z,23.79
2023-06-07T03:12:00.344Z,23.61
2023-06-07T03:14:32.259Z,23.21
2023-06-07T03:16:59.031Z,23.35
2023-06-07T03:19:26.438Z,23.19
2023-06-07T03:21:56.021Z,23.39
2023-06-07T03:24:24.510Z,24.07
2023-06-07T03:26:51.489Z,24.19
2023-06-07T03:29:19.002Z,23.94
2023-06-07T03:31:45.714Z,23.88
2023-06-07T03:34:16.383Z,23.61
2023-06-07T03:36:43.933Z,23.62
2023-06-07T03:39:14.351Z,23.68
2023-06-07T03:41:41.629Z,24.02
2023-06-07T03:44:09.978Z,23.93
2023-06-07T03:46:39.158Z,24.22
2023-06-07T03:49:05.841Z,24.03
2023-06-07T03:51:34.055Z,23.99
2023-06-07T03:54:03.255Z,23.90
2023-06-07T03:56:30.747Z,23.94
2023-06-07T03:58:58.263Z,22.73
2023-06-07T04:01:26.969Z,22.96
2023-06-07T04:03:55.985Z,22.00
2023-06-07T04:06:25.195Z,22.45
2023-06-07T04:08:53.146Z,23.04
2023-06-07T04:11:20.491Z,22.16
2023-06-07T04:13:47.738Z,22.17
2023-06-07T04:16:14.523Z,22.19
2023-06-07T04:18:44.481Z,22.37
2023-06-07T04:21:13.791Z,22.29
2023-06-07T04:23:42.967Z,22.51
2023-06-07T04:26:10.949Z,22.89
2023-06-07T04:28:41.760Z,22.92
2023-06-07T04:31:09.958Z,22.73
2023-06-07T04:33:38.571Z,22.72
2023-06-07T04:36:06.082Z,23.39
2023-06-07T04:38:33.609Z,23.67
2023-06-07T04:41:08.810Z,23.71
2023-06-07T04:43:42.133Z,23.90
2023-06-07T04:46:14.170Z,24.75
2023-06-07T04:48:42.407Z,24.46
2023-06-07T04:51:09.730Z,24.71
2023-06-07T04:53:44.043Z,24.44
2023-06-07T04:56:13.956Z,24.79
2023-06-07T04:58:41.657Z,24.45
2023-06-07T05:01:12.416Z,25.43
2023-06-07T05:03:43.671Z,25.85
2023-06-07T05:06:12.946Z,25.68
2023-06-07T05:08:40.142Z,26.48
2023-06-07T05:11:07.394Z,27.02
2023-06-07T05:13:34.140Z,27.35
2023-06-07T05:16:02.387Z,28.07
2023-06-07T05:18:29.806Z,28.77
2023-06-07T05:20:58.620Z,28.97
2023-06-07T05:23:26.882Z,29.89
2023-06-07T05:25:54.484Z,30.98
2023-06-07T05:28:22.056Z,31.94
2023-06-07T05:30:52.910Z,32.68
2023-06-07T05:33:22.408Z,33.73
2023-06-07T05:35:49.365Z,34.16
2023-06-07T05:38:17.997Z,33.67
2023-06-07T05:40:44.634Z,32.86
2023-06-07T05:43:11.613Z,32.15
2023-06-07T05:45:41.342Z,32.04
2023-06-07T05:48:08.834Z,30.75
2023-06-07T05:50:35.640Z,30.85
2023-06-07T05:53:02.261Z,30.55
2023-06-07T05:55:29.629Z,30.49
2023-06-07T05:57:58.358Z,30.30
2023-06-07T06:00:25.839Z,30.29
2023-06-07T06:02:54.076Z,30.26
2023-06-07T06:05:29.137Z,30.07
2023-06-07T06:07:58.000Z,30.09
2023-06-07T06:10:25.852Z,30.22
2023-06-07T06:12:52.678Z,29.87
2023-06-07T06:15:19.367Z,29.78
2023-06-07T06:17:46.133Z,30.15
2023-06-07T06:20:13.425Z,30.33
2023-06-07T06:22:40.265Z,30.50
2023-06-07T06:25:07.363Z,31.15
2023-06-07T06:27:34.260Z,31.47
2023-06-07T06:30:01.062Z,31.62
2023-06-07T06:32:27.754Z,31.66
2023-06-07T06:34:54.423Z,31.60
2023-06-07T06:37:21.587Z,31.95
2023-06-07T06:39:49.574Z,32.67
2023-06-07T06:42:16.446Z,32.94
2023-06-07T06:45:11.600Z,34.05
2023-06-07T06:47:42.586Z,35.04
2023-06-07T06:50:30.323Z,36.06
2023-06-07T06:53:01.992Z,36.96
2023-06-07T06:55:28.830Z,37.69
2023-06-07T06:57:56.257Z,37.94
2023-06-07T07:00:24.485Z,38.53
2023-06-07T07:02:51.342Z,38.46
2023-06-07T07:05:17.978Z,38.17
2023-06-07T07:07:44.672Z,38.04
2023-06-07T07:10:13.204Z,37.93
2023-06-07T07:12:40.766Z,37.63
2023-06-07T07:15:07.668Z,37.77
2023-06-07T07:17:34.566Z,37.84
2023-06-07T07:20:01.242Z,38.29
2023-06-07T07:22:28.784Z,38.75
2023-06-07T07:24:56.427Z,39.70
2023-06-07T07:27:24.038Z,40.44
2023-06-07T07:29:50.653Z,41.78
2023-06-07T07:32:17.317Z,42.65
2023-06-07T07:34:44.045Z,43.75
2023-06-07T07:37:11.231Z,43.25
2023-06-07T07:39:38.956Z,42.06
2023-06-07T07:42:06.815Z,41.25
2023-06-07T07:44:34.638Z,40.39
2023-06-07T07:47:01.772Z,39.64
2023-06-07T07:49:28.474Z,38.47
2023-06-07T07:51:58.197Z,38.06
2023-06-07T07:54:25.544Z,38.06
2023-06-07T07:56:52.354Z,36.85
2023-06-07T07:59:19.037Z,36.76
2023-06-07T08:01:46.623Z,36.46
2023-06-07T08:04:13.752Z,36.61
2023-06-07T08:06:40.834Z,36.69
2023-06-07T08:09:07.443Z,36.52
2023-06-07T08:11:34.295Z,36.21
2023-06-07T08:14:00.899Z,36.28
2023-06-07T08:16:27.679Z,36.30
2023-06-07T08:19:00.576Z,36.60
2023-06-07T08:21:27.502Z,36.61
2023-06-07T08:23:56.154Z,36.71
2023-06-07T08:26:23.502Z,36.49
2023-06-07T08:28:50.139Z,36.39
2023-06-07T08:31:18.959Z,36.46
2023-06-07T08:33:47.353Z,36.59
2023-06-07T08:36:16.085Z,36.60
2023-06-07T08:38:42.759Z,36.54
2023-06-07T08:41:10.166Z,36.55
2023-06-07T08:43:38.840Z,36.40
2023-06-07T08:46:06.582Z,36.37
2023-06-07T08:48:37.133Z,36.51
2023-06-07T08:51:08.174Z,36.25
2023-06-07T08:53:48.017Z,36.57
2023-06-07T08:56:18.189Z,36.18
2023-06-07T08:58:45.401Z,36.34
2023-06-07T09:01:12.902Z,36.07
2023-06-07T09:03:41.190Z,36.32
2023-06-07T09:06:09.642Z,36.66
2023-06-07T09:08:37.141Z,36.68
2023-06-07T09:11:03.777Z,36.98
2023-06-07T09:13:31.283Z,37.06
2023-06-07T09:16:00.449Z,37.21
2023-06-07T09:18:43.902Z,37.31
2023-06-07T09:21:21.501Z,36.91
2023-06-07T09:23:49.454Z,36.83
2023-06-07T09:26:17.328Z,37.50
2023-06-07T09:28:46.953Z,37.97
2023-06-07T09:31:14.597Z,37.66
2023-06-07T09:33:41.343Z,38.01
2023-06-07T09:36:16.321Z,38.13
2023-06-07T09:38:43.397Z,38.08
2023-06-07T09:41:14.135Z,38.31
2023-06-07T09:43:45.130Z,38.61
2023-06-07T09:46:12.779Z,38.99
2023-06-07T09:48:50.892Z,39.20
2023-06-07T09:51:19.701Z,39.90
2023-06-07T09:53:50.810Z,38.70
2023-06-07T09:56:18.000Z,39.08
2023-06-07T09:58:47.362Z,39.02
2023-06-07T10:01:14.520Z,39.57
2023-06-07T10:03:48.031Z,40.00
2023-06-07T10:06:17.475Z,40.07
2023-06-07T10:08:45.697Z,40.21
2023-06-07T10:11:14.861Z,40.72
2023-06-07T10:13:43.138Z,40.98
2023-06-07T10:16:11.642Z,41.38
2023-06-07T10:18:41.083Z,41.51
2023-06-07T10:21:15.252Z,42.00
2023-06-07T10:23:51.597Z,42.33
2023-06-07T10:26:30.088Z,42.90
2023-06-07T10:29:10.822Z,42.90
2023-06-07T10:32:07.940Z,42.81
2023-06-07T10:34:37.509Z,42.92
2023-06-07T10:37:08.369Z,42.51
2023-06-07T10:39:37.274Z,43.21
2023-06-07T10:42:04.189Z,43.37
2023-06-07T10:44:31.693Z,43.57
2023-06-07T10:47:23.144Z,44.28
2023-06-07T10:49:50.677Z,43.98
2023-06-07T10:52:18.004Z,43.62
2023-06-07T10:54:45.478Z,43.84
2023-06-07T10:57:12.596Z,44.08
2023-06-07T10:59:40.674Z,43.69
2023-06-07T11:02:24.916Z,43.28
2023-06-07T11:05:04.485Z,43.37
2023-06-07T11:07:33.076Z,43.12
2023-06-07T11:10:06.813Z,43.47
2023-06-07T11:12:37.131Z,43.00
2023-06-07T11:15:23.210Z,42.20
2023-06-07T11:17:57.852Z,41.57
2023-06-07T11:20:37.498Z,42.57
2023-06-07T11:23:31.739Z,43.30
2023-06-07T11:26:08.111Z,43.24
2023-06-07T11:28:39.400Z,43.96
2023-06-07T11:31:13.878Z,43.97
2023-06-07T11:33:44.848Z,44.48
2023-06-07T11:36:12.290Z,44.82
2023-06-07T11:38:40.147Z,44.35
2023-06-07T11:41:07.016Z,44.40
2023-06-07T11:43:34.583Z,44.76
2023-06-07T11:46:01.747Z,44.84
2023-06-07T11:48:30.159Z,44.83
2023-06-07T11:50:57.744Z,44.64
2023-06-07T11:53:24.818Z,44.45
2023-06-07T11:55:53.880Z,44.38
2023-06-07T11:58:20.568Z,45.00
2023-06-07T12:00:48.804Z,45.09
2023-06-07T12:03:17.576Z,45.49
2023-06-07T12:05:46.055Z,45.05
2023-06-07T12:08:15.715Z,44.53
2023-06-07T12:10:42.772Z,44.88
2023-06-07T12:13:14.719Z,44.97
2023-06-07T12:16:00.260Z,45.14
2023-06-07T12:18:33.766Z,44.87
2023-06-07T12:21:04.938Z,44.84
2023-06-07T12:23:32.847Z,44.69
2023-06-07T12:26:16.204Z,43.82
2023-06-07T12:28:44.618Z,43.30
2023-06-07T12:31:21.139Z,42.83
2023-06-07T12:33:58.832Z,42.92
2023-06-07T12:36:31.604Z,42.94
2023-06-07T12:39:06.774Z,43.74
2023-06-07T12:41:34.420Z,43.55
2023-06-07T12:44:04.568Z,43.50
2023-06-07T12:46:32.165Z,43.77
2023-06-07T12:48:58.929Z,43.95
2023-06-07T12:51:26.852Z,44.34
2023-06-07T12:53:54.740Z,44.68
2023-06-07T12:56:25.104Z,44.72
2023-06-07T12:58:51.962Z,44.40
2023-06-07T13:01:18.863Z,44.09
2023-06-07T13:03:46.416Z,44.89
2023-06-07T13:06:13.184Z,44.47
2023-06-07T13:08:39.853Z,43.82
2023-06-07T13:11:07.229Z,43.79
2023-06-07T13:13:34.269Z,44.02
2023-06-07T13:16:01.891Z,43.84
2023-06-07T13:18:30.455Z,43.54
2023-06-07T13:20:57.281Z,43.29
2023-06-07T13:23:24.709Z,43.29
2023-06-07T13:25:52.010Z,43.53
2023-06-07T13:28:20.810Z,43.68
2023-06-07T13:30:48.438Z,43.38
2023-06-07T13:33:19.418Z,43.03
2023-06-07T13:35:46.159Z,43.29
2023-06-07T13:38:13.283Z,43.68
2023-06-07T13:40:40.311Z,43.99
2023-06-07T13:43:07.838Z,44.77
2023-06-07T13:45:34.895Z,44.16
2023-06-07T13:48:02.650Z,43.51
2023-06-07T13:50:30.950Z,43.32
2023-06-07T13:52:57.743Z,42.94
2023-06-07T13:55:25.042Z,42.61
2023-06-07T13:57:52.194Z,42.09
2023-06-07T14:00:19.538Z,42.36
2023-06-07T14:02:46.670Z,42.51
2023-06-07T14:05:14.656Z,41.86
2023-06-07T14:07:42.031Z,41.98
2023-06-07T14:10:09.533Z,41.81
2023-06-07T14:12:36.131Z,41.71
2023-06-07T14:15:03.166Z,41.57
2023-06-07T14:17:30.543Z,41.75
2023-06-07T14:19:57.452Z,41.20
2023-06-07T14:22:24.090Z,41.16
2023-06-07T14:24:51.022Z,40.76
2023-06-07T14:27:17.625Z,40.95
2023-06-07T14:29:44.264Z,41.12
2023-06-07T14:32:11.350Z,40.90
2023-06-07T14:34:37.959Z,40.93
2023-06-07T14:37:04.619Z,40.90
2023-06-07T14:39:31.719Z,41.23
2023-06-07T14:41:58.391Z,41.15
2023-06-07T14:44:25.345Z,40.43
2023-06-07T14:46:52.237Z,40.86
2023-06-07T14:49:18.857Z,40.97
2023-06-07T14:51:48.868Z,40.93
2023-06-07T14:54:16.035Z,41.07
2023-06-07T14:56:42.838Z,40.95
2023-06-07T14:59:14.017Z,41.49
2023-06-07T15:01:41.413Z,41.48
2023-06-07T15:04:08.936Z,41.33
2023-06-07T15:06:36.831Z,41.24
2023-06-07T15:09:04.631Z,40.69
2023-06-07T15:11:31.397Z,40.88
2023-06-07T15:13:58.094Z,40.46
2023-06-07T15:16:24.890Z,40.62
2023-06-07T15:18:51.747Z,40.59
2023-06-07T15:21:20.171Z,40.24
2023-06-07T15:23:49.788Z,39.73
2023-06-07T15:26:17.479Z,40.06
2023-06-07T15:28:44.691Z,40.56
2023-06-07T15:31:11.375Z,39.64
2023-06-07T15:33:38.108Z,39.80
2023-06-07T15:36:05.288Z,39.21
2023-06-07T15:38:38.229Z,38.67
2023-06-07T15:41:09.249Z,38.81
2023-06-07T15:43:37.031Z,39.54
2023-06-07T15:46:04.501Z,38.85
2023-06-07T15:48:31.642Z,39.27
2023-06-07T15:50:58.650Z,40.21
2023-06-07T15:53:25.401Z,40.18
2023-06-07T15:55:52.181Z,40.78
2023-06-07T15:58:19.163Z,40.25
2023-06-07T16:00:49.496Z,39.67
2023-06-07T16:03:17.035Z,39.74
2023-06-07T16:05:43.834Z,39.39
2023-06-07T16:08:14.094Z,39.03
2023-06-07T16:10:43.397Z,38.97
2023-06-07T16:13:10.222Z,38.45
2023-06-07T16:15:37.457Z,39.18
2023-06-07T16:18:05.740Z,38.62
2023-06-07T16:20:32.762Z,37.77
2023-06-07T16:22:59.510Z,38.17
2023-06-07T16:25:26.144Z,37.78
2023-06-07T16:27:52.733Z,37.83
2023-06-07T16:30:19.664Z,37.47
2023-06-07T16:32:46.513Z,37.65
2023-06-07T16:35:13.176Z,37.66
2023-06-07T16:37:39.776Z,37.24
2023-06-07T16:40:07.251Z,37.65
2023-06-07T16:42:34.107Z,38.04
2023-06-07T16:45:00.769Z,38.42
2023-06-07T16:47:28.466Z,38.54
2023-06-07T16:49:55.420Z,38.64
2023-06-07T16:52:22.417Z,38.50
2023-06-07T16:54:49.033Z,38.64
2023-06-07T16:57:15.677Z,38.87
2023-06-07T16:59:42.455Z,38.64
2023-06-07T17:02:09.233Z,38.44
2023-06-07T17:04:36.597Z,38.45
2023-06-07T17:07:04.190Z,38.78
2023-06-07T17:09:31.257Z,38.78
2023-06-07T17:11:58.059Z,38.64
2023-06-07T17:14:24.759Z,38.70
2023-06-07T17:16:52.207Z,38.74
2023-06-07T17:19:19.751Z,38.63
2023-06-07T17:21:46.503Z,38.58
2023-06-07T17:24:13.335Z,38.66
2023-06-07T17:26:40.111Z,38.71
2023-06-07T17:29:27.593Z,38.68
2023-06-07T17:31:54.168Z,38.65
2023-06-07T17:34:20.975Z,38.41
2023-06-07T17:36:47.787Z,37.71
2023-06-07T17:39:16.095Z,36.61
2023-06-07T17:41:42.904Z,35.64
2023-06-07T17:44:09.808Z,35.35
2023-06-07T17:46:37.052Z,34.99
2023-06-07T17:49:04.041Z,34.73
2023-06-07T17:51:31.217Z,33.75
2023-06-07T17:53:57.965Z,34.01
2023-06-07T17:56:26.628Z,33.91
2023-06-07T17:58:53.805Z,33.27
2023-06-07T18:01:20.624Z,32.84
2023-06-07T18:03:47.392Z,32.58
2023-06-07T18:06:14.140Z,32.31
2023-06-07T18:08:40.773Z,32.14
2023-06-07T18:11:08.264Z,31.53
2023-06-07T18:13:35.979Z,31.42
2023-06-07T18:16:02.838Z,31.74
2023-06-07T18:18:30.822Z,31.38
2023-06-07T18:20:57.592Z,31.25
2023-06-07T18:23:24.366Z,31.36
2023-06-07T18:25:51.351Z,31.45
2023-06-07T18:28:18.468Z,31.72
2023-06-07T18:30:45.157Z,31.34
2023-06-07T18:33:11.973Z,31.68
2023-06-07T18:35:38.684Z,31.32
2023-06-07T18:38:05.314Z,31.50
2023-06-07T18:40:33.464Z,31.62
2023-06-07T18:43:00.137Z,31.80
2023-06-07T18:45:27.180Z,32.04
2023-06-07T18:47:54.023Z,31.78
2023-06-07T18:50:21.204Z,32.03
2023-06-07T18:52:47.907Z,31.58
2023-06-07T18:55:14.774Z,31.76
2023-06-07T18:57:41.596Z,31.43
2023-06-07T19:00:08.857Z,31.16
2023-06-07T19:02:37.144Z,31.16
2023-06-07T19:05:04.344Z,30.87
2023-06-07T19:07:31.568Z,30.69
2023-06-07T19:09:58.318Z,30.59
2023-06-07T19:12:28.100Z,31.01
2023-06-07T19:14:56.386Z,30.92
2023-06-07T19:17:23.144Z,30.75
2023-06-07T19:19:49.930Z,30.68
2023-06-07T19:22:16.569Z,30.68
2023-06-07T19:24:46.746Z,30.88
2023-06-07T19:27:13.629Z,29.79
2023-06-07T19:29:41.898Z,29.35
2023-06-07T19:32:10.043Z,29.75
2023-06-07T19:34:37.340Z,29.52
2023-06-07T19:37:04.534Z,29.83
2023-06-07T19:39:34.367Z,30.55
2023-06-07T19:42:04.443Z,30.69
2023-06-07T19:44:31.260Z,30.01
2023-06-07T19:47:03.276Z,30.06
2023-06-07T19:49:30.791Z,29.75
2023-06-07T19:51:57.558Z,30.20
2023-06-07T19:54:24.218Z,29.75
2023-06-07T19:56:51.029Z,30.24
2023-06-07T19:59:18.064Z,30.06
2023-06-07T20:01:44.972Z,30.41
2023-06-07T20:04:14.379Z,29.79
2023-06-07T20:06:41.251Z,29.99
2023-06-07T20:09:08.433Z,30.18
2023-06-07T20:11:35.321Z,30.08
2023-06-07T20:14:02.127Z,29.60
2023-06-07T20:16:29.650Z,30.01
2023-06-07T20:18:56.446Z,29.84
2023-06-07T20:21:23.439Z,30.11
2023-06-07T20:23:50.287Z,29.73
2023-06-07T20:26:18.206Z,29.30
2023-06-07T20:28:45.203Z,29.72
2023-06-07T20:31:12.347Z,29.49
2023-06-07T20:33:40.128Z,29.59
2023-06-07T20:36:07.629Z,29.53
2023-06-07T20:38:34.333Z,29.38
2023-06-07T20:41:02.048Z,29.35
2023-06-07T20:43:29.561Z,29.47
2023-06-07T20:45:56.554Z,29.66
2023-06-07T20:48:23.650Z,28.90
2023-06-07T20:50:50.371Z,29.11
2023-06-07T20:53:17.365Z,29.53
2023-06-07T20:55:44.282Z,29.53
2023-06-07T20:58:11.390Z,29.73
2023-06-07T21:00:41.038Z,29.96
2023-06-07T21:03:08.534Z,29.65
2023-06-07T21:05:35.500Z,29.43
2023-06-07T21:08:02.960Z,28.85
2023-06-07T21:10:29.685Z,28.53
2023-06-07T21:12:56.314Z,28.60
2023-06-07T21:15:23.589Z,28.53
2023-06-07T21:17:50.350Z,28.56
2023-06-07T21:20:18.478Z,28.76
2023-06-07T21:22:45.151Z,28.43
2023-06-07T21:25:11.985Z,28.55
2023-06-07T21:27:38.766Z,28.62
2023-06-07T21:30:06.404Z,28.99
2023-06-07T21:32:33.286Z,29.03
2023-06-07T21:35:00.436Z,29.35
2023-06-07T21:37:27.148Z,29.17
2023-06-07T21:39:53.827Z,29.16
2023-06-07T21:42:20.678Z,28.69
2023-06-07T21:44:47.921Z,28.25
2023-06-07T21:47:14.615Z,28.02
2023-06-07T21:49:41.266Z,27.82
2023-06-07T21:52:08.800Z,27.63
2023-06-07T21:54:44.426Z,27.38
2023-06-07T21:57:11.412Z,27.78
2023-06-07T21:59:38.124Z,27.79
2023-06-07T22:02:06.396Z,27.31
2023-06-07T22:04:33.243Z,27.73
2023-06-07T22:07:00.217Z,27.63
2023-06-07T22:09:26.968Z,27.78
2023-06-07T22:11:55.476Z,27.53
2023-06-07T22:14:22.945Z,27.75
2023-06-07T22:16:50.394Z,27.03
2023-06-07T22:19:20.119Z,26.95
2023-06-07T22:21:49.743Z,26.79
2023-06-07T22:24:19.187Z,26.80
2023-06-07T22:26:46.993Z,26.52
2023-06-07T22:29:14.172Z,26.50
2023-06-07T22:31:41.107Z,26.72
2023-06-07T22:34:08.962Z,26.22
2023-06-07T22:36:41.426Z,26.61
2023-06-07T22:39:10.158Z,26.51
2023-06-07T22:41:37.846Z,25.87
2023-06-07T22:44:05.188Z,25.48
2023-06-07T22:46:34.931Z,25.98
2023-06-07T22:49:01.938Z,25.90
2023-06-07T22:51:31.660Z,25.92
2023-06-07T22:53:58.651Z,25.82
2023-06-07T22:56:26.046Z,25.82
2023-06-07T22:58:52.727Z,25.88
2023-06-07T23:01:19.894Z,25.86
2023-06-07T23:03:47.998Z,25.65
2023-06-07T23:06:15.310Z,25.54
2023-06-07T23:08:41.996Z,25.63
2023-06-07T23:11:08.985Z,25.50
2023-06-07T23:13:36.169Z,25.68
2023-06-07T23:16:03.627Z,25.72
2023-06-07T23:18:31.119Z,25.40
2023-06-07T23:20:58.336Z,25.30
2023-06-07T23:23:25.076Z,25.27
2023-06-07T23:25:51.843Z,25.63
2023-06-07T23:28:18.499Z,25.32
2023-06-07T23:30:45.136Z,25.46
2023-06-07T23:33:12.977Z,25.52
2023-06-07T23:35:42.033Z,25.62
2023-06-07T23:38:08.882Z,25.27
2023-06-07T23:40:35.660Z,25.01
2023-06-07T23:43:05.182Z,25.39
2023-06-07T23:45:32.317Z,25.13
2023-06-07T23:48:00.104Z,24.96
2023-06-07T23:50:26.983Z,24.73
2023-06-07T23:52:54.128Z,25.10
2023-06-07T23:55:21.294Z,25.11
2023-06-07T23:57:48.447Z,25.00
